Time;durP1;ratioP1;P1;durP2;ratioP2;P2;SDS_P1;SDS_P2;PMS_P1;PMS_P2;Temp;Humidity;BMP_temperature;BMP_pressure;BME280_temperature;BME280_humidity;BME280_pressure;Samples;Min_cycle;Max_cycle;Signal;HPM_P1;HPM_P2
2021/06/22 00:01:26;;;;;;;8.02;4.65;;;15.50;90.90;;;;;;5085228;28;20096;-82
2021/06/22 00:03:52;;;;;;;8.02;4.65;;;15.40;90.70;;;;;;5091686;28;20016;-81
2021/06/22 00:06:18;;;;;;;7.88;4.68;;;15.40;90.50;;;;;;5087938;28;20016;-82
2021/06/22 00:08:43;;;;;;;6.18;4.20;;;15.40;90.70;;;;;;5061115;28;20103;-81
2021/06/22 00:11:09;;;;;;;5.05;4.35;;;15.30;91.10;;;;;;5071525;28;20048;-82
2021/06/22 00:13:43;;;;;;;6.85;4.85;;;15.30;91.10;;;;;;5065006;28;20346;-82
2021/06/22 00:16:09;;;;;;;6.53;5.15;;;15.30;91.00;;;;;;5082610;28;20102;-82
2021/06/22 00:18:34;;;;;;;8.65;5.28;;;15.30;90.90;;;;;;5055207;28;20041;-82
2021/06/22 00:21:00;;;;;;;5.88;4.55;;;15.30;90.90;;;;;;5038599;28;20028;-81
2021/06/22 00:23:25;;;;;;;8.27;5.53;;;15.20;91.20;;;;;;5068706;28;20032;-82
2021/06/22 00:29:13;;;;;;;6.70;5.97;;;15.10;91.60;;;;;;5082921;28;20081;-82
2021/06/22 00:31:39;;;;;;;6.57;5.45;;;15.10;91.60;;;;;;5081710;28;20107;-82
2021/06/22 00:34:04;;;;;;;9.80;5.53;;;15.00;91.70;;;;;;5081196;28;20468;-81
2021/06/22 00:36:30;;;;;;;8.02;5.68;;;15.10;91.80;;;;;;5088595;28;20013;-82
2021/06/22 00:38:56;;;;;;;8.98;5.50;;;15.10;91.90;;;;;;5078778;28;20031;-82
2021/06/22 00:41:21;;;;;;;9.18;5.03;;;15.00;91.90;;;;;;5045225;28;20337;-82
2021/06/22 00:43:47;;;;;;;8.43;5.28;;;15.00;92.00;;;;;;5068819;28;20038;-81
2021/06/22 00:46:13;;;;;;;7.68;5.90;;;15.00;92.30;;;;;;5061946;28;20449;-82
2021/06/22 00:48:38;;;;;;;10.55;5.80;;;14.90;91.80;;;;;;5084789;28;20016;-82
2021/06/22 00:51:04;;;;;;;8.98;5.70;;;14.80;92.30;;;;;;5078005;28;20471;-81
2021/06/22 00:56:52;;;;;;;14.30;6.50;;;14.90;91.90;;;;;;5100833;28;20061;-82
2021/06/22 00:59:17;;;;;;;7.30;5.57;;;14.70;92.10;;;;;;5084493;28;20069;-82
2021/06/22 01:01:43;;;;;;;12.88;6.30;;;14.80;92.60;;;;;;5084789;28;20032;-81
2021/06/22 01:04:09;;;;;;;6.60;5.63;;;14.80;92.30;;;;;;5083251;28;20055;-84
2021/06/22 01:06:34;;;;;;;11.90;6.45;;;14.70;91.90;;;;;;5095426;28;20030;-82
2021/06/22 01:09:00;;;;;;;11.38;5.95;;;14.70;91.80;;;;;;5082008;28;20042;-83
2021/06/22 01:11:26;;;;;;;8.05;6.32;;;14.70;91.90;;;;;;5064778;28;20081;-83
2021/06/22 01:17:32;;;;;;;12.52;5.90;;;14.70;91.70;;;;;;5098832;28;20043;-81
2021/06/22 01:19:59;;;;;;;11.45;5.70;;;14.70;91.40;;;;;;5081650;28;20080;-81
2021/06/22 01:25:47;;;;;;;8.75;5.43;;;14.70;90.90;;;;;;5099734;28;20077;-80
2021/06/22 01:28:13;;;;;;;8.70;4.55;;;14.60;90.80;;;;;;5064657;28;20032;-81
2021/06/22 01:37:22;;;;;;;10.60;4.38;;;14.60;90.30;;;;;;5095923;28;20039;-82
2021/06/22 01:39:47;;;;;;;7.93;4.28;;;14.60;90.40;;;;;;5078052;28;20444;-82
2021/06/22 01:42:13;;;;;;;9.25;3.80;;;14.60;90.20;;;;;;5077911;28;20057;-81
2021/06/22 01:44:40;;;;;;;5.68;3.40;;;14.60;90.20;;;;;;5094341;28;20050;-81
2021/06/22 01:47:06;;;;;;;7.65;4.15;;;14.50;90.30;;;;;;5077927;28;20043;-82
2021/06/22 01:49:32;;;;;;;8.23;4.28;;;14.50;90.50;;;;;;5058971;28;20039;-82
2021/06/22 01:55:36;;;;;;;11.75;4.18;;;14.60;90.40;;;;;;5089326;28;20035;-83
2021/06/22 01:58:04;;;;;;;7.20;4.00;;;14.50;90.30;;;;;;5080243;28;20020;-81
2021/06/22 02:00:30;;;;;;;10.05;4.25;;;14.50;90.60;;;;;;5077060;28;20126;-81
2021/06/22 02:02:55;;;;;;;8.75;4.57;;;14.50;90.60;;;;;;5077440;28;20111;-81
2021/06/22 02:05:21;;;;;;;7.47;4.55;;;14.50;90.80;;;;;;5077458;28;20020;-82
2021/06/22 02:07:47;;;;;;;9.25;4.45;;;14.50;90.80;;;;;;5076878;28;20077;-81
2021/06/22 02:10:13;;;;;;;10.35;4.88;;;14.60;90.70;;;;;;5093818;28;20020;-82
2021/06/22 02:12:38;;;;;;;6.50;4.28;;;14.40;91.10;;;;;;5076235;28;20051;-82
2021/06/22 02:15:06;;;;;;;6.47;4.50;;;14.40;91.10;;;;;;5078120;28;20055;-82
2021/06/22 02:21:40;;;;;;;8.48;5.00;;;14.00;91.20;;;;;;5095195;28;20103;-82
2021/06/22 02:27:30;;;;;;;9.30;4.78;;;14.30;91.40;;;;;;5094725;28;20069;-82
2021/06/22 02:29:55;;;;;;;7.75;4.32;;;14.30;91.60;;;;;;5077486;28;20034;-82
2021/06/22 02:39:05;;;;;;;7.25;3.35;;;14.40;91.30;;;;;;5095298;28;20421;-82
2021/06/22 02:41:31;;;;;;;6.63;3.45;;;14.30;91.30;;;;;;5076862;28;20024;-82
2021/06/22 02:43:56;;;;;;;7.35;3.42;;;14.30;91.60;;;;;;5073054;28;20305;-82
2021/06/22 02:46:22;;;;;;;5.30;3.42;;;14.40;91.50;;;;;;5058479;28;20020;-82
2021/06/22 02:52:10;;;;;;;10.52;3.90;;;14.30;91.40;;;;;;5094909;28;20086;-82
2021/06/22 02:55:18;;;;;;;7.50;4.00;;;14.30;91.20;;;;;;5077274;28;20435;-82
2021/06/22 02:57:52;;;;;;;7.55;4.07;;;14.20;91.30;;;;;;5090081;28;20028;-82
2021/06/22 03:00:19;;;;;;;7.65;4.00;;;14.10;91.60;;;;;;5074075;28;20457;-81
2021/06/22 03:02:44;;;;;;;11.15;4.53;;;14.20;91.50;;;;;;5068786;28;20472;-81
2021/06/22 03:05:11;;;;;;;6.53;4.38;;;14.20;91.60;;;;;;5070130;28;20036;-81
2021/06/22 03:07:36;;;;;;;10.02;4.93;;;14.10;91.50;;;;;;5076108;28;20024;-82
2021/06/22 03:10:08;;;;;;;11.27;5.13;;;14.10;91.70;;;;;;5059686;28;20072;-82
2021/06/22 03:12:33;;;;;;;9.52;4.25;;;14.20;92.00;;;;;;5073030;28;20028;-82
2021/06/22 03:14:59;;;;;;;6.45;3.75;;;14.20;91.80;;;;;;5092547;28;20083;-82
2021/06/22 03:17:25;;;;;;;9.02;4.55;;;14.20;91.70;;;;;;5057037;28;20027;-85
2021/06/22 03:20:17;;;;;;;9.60;3.85;;;14.20;91.80;;;;;;5076783;28;20440;-85
2021/06/22 03:22:43;;;;;;;7.32;4.68;;;14.20;92.00;;;;;;5075438;28;20217;-84
2021/06/22 03:25:09;;;;;;;10.02;4.53;;;14.20;92.00;;;;;;5076551;28;20436;-84
2021/06/22 03:30:57;;;;;;;11.68;5.60;;;14.10;92.00;;;;;;5093531;28;20077;-83
2021/06/22 03:33:22;;;;;;;10.45;5.30;;;14.00;92.10;;;;;;5081053;28;20032;-84
2021/06/22 03:35:48;;;;;;;13.43;5.57;;;14.00;92.30;;;;;;5075730;28;20448;-84
2021/06/22 03:38:14;;;;;;;14.10;5.22;;;14.00;92.30;;;;;;5092284;28;20036;-84
2021/06/22 03:40:39;;;;;;;11.60;5.25;;;14.00;92.40;;;;;;5092992;28;20020;-85
2021/06/22 03:46:27;;;;;;;9.75;5.15;;;14.00;92.10;;;;;;5093207;28;20020;-84
2021/06/22 03:48:53;;;;;;;8.88;5.80;;;13.90;91.90;;;;;;5056957;28;20020;-84
2021/06/22 03:51:18;;;;;;;13.13;6.50;;;14.00;92.10;;;;;;5074610;28;20031;-82
2021/06/22 03:54:08;;;;;;;19.08;7.93;;;14.10;91.50;;;;;;5057201;28;20036;-82
2021/06/22 03:56:34;;;;;;;17.13;7.32;;;14.00;91.50;;;;;;5074212;28;20058;-80
2021/06/22 03:58:59;;;;;;;16.23;7.43;;;13.90;91.30;;;;;;5063158;28;20460;-80
2021/06/22 04:01:25;;;;;;;17.33;7.40;;;13.90;91.30;;;;;;5062281;28;20119;-80
2021/06/22 04:03:51;;;;;;;12.77;6.93;;;14.00;91.40;;;;;;5061671;28;20032;-79
2021/06/22 04:06:17;;;;;;;15.38;6.95;;;14.00;91.50;;;;;;5061645;28;20476;-80
2021/06/22 04:08:42;;;;;;;13.20;6.63;;;14.00;91.40;;;;;;5064281;28;20045;-80
2021/06/22 04:11:08;;;;;;;13.63;6.05;;;14.00;91.60;;;;;;5062712;28;20019;-79
2021/06/22 04:13:34;;;;;;;15.88;6.05;;;14.10;91.40;;;;;;5065275;28;20420;-80
2021/06/22 04:16:00;;;;;;;10.57;5.32;;;14.00;91.70;;;;;;5049650;28;20070;-81
2021/06/22 04:18:28;;;;;;;10.48;5.35;;;14.00;91.60;;;;;;5064561;28;20418;-80
2021/06/22 04:20:54;;;;;;;12.70;5.35;;;14.00;91.70;;;;;;5077131;28;20134;-80
2021/06/22 04:23:21;;;;;;;6.63;4.65;;;14.00;92.00;;;;;;5047600;28;20119;-81
2021/06/22 04:25:49;;;;;;;12.15;4.65;;;14.00;92.00;;;;;;5083799;28;20024;-79
2021/06/22 04:28:14;;;;;;;6.80;4.63;;;14.00;92.00;;;;;;5065659;28;20020;-80
2021/06/22 04:30:40;;;;;;;12.45;4.35;;;14.00;92.10;;;;;;5045816;28;20035;-81
2021/06/22 04:33:06;;;;;;;11.98;4.95;;;14.00;92.10;;;;;;5065534;28;20051;-80
2021/06/22 04:35:32;;;;;;;12.75;4.15;;;14.00;92.00;;;;;;5080781;28;20028;-78
2021/06/22 04:37:59;;;;;;;11.88;4.80;;;13.90;92.20;;;;;;5082570;28;20032;-80
2021/06/22 04:40:24;;;;;;;13.35;4.78;;;13.90;92.40;;;;;;5065225;28;20440;-79
2021/06/22 04:42:50;;;;;;;11.77;4.53;;;13.90;92.50;;;;;;5064802;28;20073;-80
2021/06/22 04:45:16;;;;;;;10.10;4.47;;;13.80;92.60;;;;;;5048627;28;20040;-79
2021/06/22 04:51:04;;;;;;;12.30;5.15;;;13.90;92.50;;;;;;5093272;28;20233;-81
2021/06/22 04:53:29;;;;;;;11.52;5.53;;;14.00;92.90;;;;;;5074879;28;20020;-80
2021/06/22 04:55:55;;;;;;;13.95;5.60;;;13.90;92.60;;;;;;5083860;28;20043;-78
2021/06/22 04:58:21;;;;;;;14.02;5.78;;;14.00;92.90;;;;;;5054820;28;20024;-80
2021/06/22 05:04:08;;;;;;;17.08;5.50;;;14.00;92.70;;;;;;5093442;28;20066;-79
2021/06/22 05:06:34;;;;;;;16.65;5.35;;;14.00;92.80;;;;;;5080626;28;20460;-80
2021/06/22 05:12:22;;;;;;;10.48;6.18;;;13.90;92.70;;;;;;5096525;28;20035;-80
2021/06/22 05:14:48;;;;;;;12.25;6.22;;;13.90;92.80;;;;;;5073552;28;20020;-80
2021/06/22 05:17:13;;;;;;;17.15;6.25;;;13.90;92.80;;;;;;5074686;28;20027;-81
2021/06/22 05:20:10;;;;;;;18.73;6.28;;;14.00;93.00;;;;;;5042212;28;20353;-82
2021/06/22 05:22:36;;;;;;;11.50;5.68;;;13.90;92.90;;;;;;5090311;28;20364;-84
2021/06/22 05:25:02;;;;;;;16.52;6.88;;;13.90;92.80;;;;;;5051254;28;20039;-82
2021/06/22 05:34:26;;;;;;;20.45;7.05;;;14.00;92.80;;;;;;5085388;28;20023;-81
2021/06/22 05:40:14;;;;;;;14.18;7.00;;;14.00;92.60;;;;;;5076128;28;20577;-80
2021/06/22 05:46:02;;;;;;;23.20;7.90;;;14.10;92.80;;;;;;5076155;28;20515;-86
2021/06/22 05:48:27;;;;;;;16.10;7.70;;;14.20;92.70;;;;;;5058644;28;20029;-85
2021/06/22 05:54:15;;;;;;;14.50;8.10;;;14.10;93.00;;;;;;5076098;28;20024;-86
2021/06/22 06:00:04;;;;;;;20.75;9.02;;;14.10;92.50;;;;;;5076148;28;20036;-85
2021/06/22 06:05:51;;;;;;;17.70;8.90;;;14.10;92.60;;;;;;5075930;28;20127;-85
2021/06/22 06:11:39;;;;;;;21.00;9.95;;;14.10;92.50;;;;;;5075778;28;20023;-87
2021/06/22 06:17:27;;;;;;;24.73;10.10;;;14.30;92.50;;;;;;5075893;28;20047;-88
2021/06/22 06:23:40;;;;;;;18.20;10.43;;;14.50;92.10;;;;;;5074963;28;20115;-86
2021/06/22 06:27:22;;;;;;;17.98;11.25;;;14.50;92.10;;;;;;5042962;28;20036;-87
2021/06/22 06:29:48;;;;;;;18.13;11.82;;;14.40;91.60;;;;;;5068058;28;20120;-87
2021/06/22 06:32:13;;;;;;;19.95;11.40;;;14.50;92.00;;;;;;5064921;28;20025;-83
2021/06/22 06:38:01;;;;;;;20.50;11.07;;;14.70;91.20;;;;;;5075247;28;20534;-87
2021/06/22 06:43:48;;;;;;;17.50;11.73;;;14.80;90.90;;;;;;5075150;28;20467;-87
2021/06/22 06:46:14;;;;;;;25.10;12.10;;;14.80;90.90;;;;;;5074256;28;20028;-88
2021/06/22 06:48:41;;;;;;;18.50;11.68;;;14.90;91.30;;;;;;5070065;28;20016;-87
2021/06/22 06:54:29;;;;;;;23.83;12.40;;;14.90;90.40;;;;;;5095880;28;20058;-89
2021/06/22 07:00:17;;;;;;;19.73;12.07;;;15.00;91.30;;;;;;5095822;28;20103;-85
2021/06/22 07:06:05;;;;;;;23.85;12.43;;;15.20;90.60;;;;;;5096330;28;20046;-81
2021/06/22 07:11:56;;;;;;;22.30;13.10;;;15.40;90.70;;;;;;5095661;28;20015;-84
2021/06/22 07:14:21;;;;;;;20.75;13.30;;;15.40;90.40;;;;;;5060860;28;20020;-82
2021/06/22 07:16:48;;;;;;;25.23;13.88;;;15.50;90.00;;;;;;5077328;28;20172;-80
2021/06/22 07:19:14;;;;;;;26.27;15.10;;;15.50;90.30;;;;;;5078127;28;20048;-82
2021/06/22 07:21:40;;;;;;;20.05;15.57;;;15.70;90.00;;;;;;5060725;28;20023;-82
2021/06/22 07:24:06;;;;;;;25.80;15.68;;;16.10;90.80;;;;;;5077338;28;20050;-82
2021/06/22 07:26:33;;;;;;;21.10;15.20;;;16.60;85.50;;;;;;5060333;28;20043;-83
2021/06/22 07:28:59;;;;;;;24.85;15.38;;;16.90;84.20;;;;;;5077075;28;20020;-82
2021/06/22 07:31:24;;;;;;;23.52;15.65;;;17.00;82.70;;;;;;5078547;28;20034;-84
2021/06/22 07:37:12;;;;;;;18.95;12.88;;;16.80;84.30;;;;;;5094639;28;20081;-82
2021/06/22 07:42:59;;;;;;;27.42;14.68;;;16.40;84.40;;;;;;5094019;28;20525;-82
2021/06/22 07:45:25;;;;;;;22.30;14.05;;;16.40;85.00;;;;;;5076171;28;20035;-83
2021/06/22 07:47:52;;;;;;;21.38;14.75;;;16.60;86.10;;;;;;5076354;28;20148;-83
2021/06/22 07:50:18;;;;;;;22.20;16.40;;;16.50;85.50;;;;;;5092837;28;20047;-83
2021/06/22 07:52:44;;;;;;;24.75;15.15;;;16.40;85.10;;;;;;5059226;28;20063;-84
2021/06/22 07:55:18;;;;;;;21.67;15.23;;;16.10;86.00;;;;;;5058993;28;20035;-83
2021/06/22 08:01:40;;;;;;;19.02;14.18;;;16.20;86.20;;;;;;5092633;28;20038;-84
2021/06/22 08:07:27;;;;;;;17.02;13.68;;;16.20;87.40;;;;;;5073612;28;20059;-86
2021/06/22 08:13:15;;;;;;;20.70;14.63;;;15.90;88.50;;;;;;5074634;28;20020;-85
2021/06/22 08:15:41;;;;;;;20.33;13.88;;;15.90;89.30;;;;;;5040096;28;20025;-87
2021/06/22 08:18:07;;;;;;;19.75;14.10;;;15.90;90.30;;;;;;5040314;28;20020;-82
2021/06/22 08:23:55;;;;;;;19.70;12.13;;;16.00;90.00;;;;;;5074682;28;20032;-83
2021/06/22 08:29:42;;;;;;;17.73;10.38;;;16.00;88.70;;;;;;5073554;28;20019;-85
2021/06/22 08:35:35;;;;;;;15.18;10.45;;;16.40;86.80;;;;;;5073463;28;20035;-85
2021/06/22 08:41:24;;;;;;;14.80;9.20;;;16.70;84.20;;;;;;5073217;28;20019;-83
2021/06/22 08:47:12;;;;;;;12.77;9.27;;;16.70;83.50;;;;;;5079309;28;20023;-84
2021/06/22 08:49:37;;;;;;;15.02;9.82;;;16.90;83.40;;;;;;5098209;28;20028;-84
2021/06/22 08:55:26;;;;;;;10.65;8.65;;;17.10;82.70;;;;;;5097650;28;20082;-84
2021/06/22 09:01:13;;;;;;;10.90;9.27;;;17.60;80.60;;;;;;5096707;28;20019;-87
2021/06/22 09:03:39;;;;;;;10.65;8.77;;;17.80;79.40;;;;;;5079779;28;20032;-85
2021/06/22 09:09:34;;;;;;;12.60;9.35;;;18.30;78.70;;;;;;5097354;28;20086;-85
2021/06/22 09:18:45;;;;;;;16.10;9.93;;;17.10;79.70;;;;;;5097229;28;20084;-88
2021/06/22 09:21:23;;;;;;;14.75;11.00;;;17.20;81.90;;;;;;5062019;28;20031;-87
2021/06/22 09:27:11;;;;;;;12.88;9.90;;;17.40;80.00;;;;;;5097190;28;20356;-86
2021/06/22 09:33:20;;;;;;;17.25;9.48;;;17.20;81.30;;;;;;5096790;28;20478;-85
2021/06/22 09:35:46;;;;;;;12.57;9.60;;;17.20;82.00;;;;;;5063976;28;20363;-85
2021/06/22 09:38:13;;;;;;;15.73;9.95;;;17.20;82.50;;;;;;5061913;28;20024;-87
2021/06/22 09:40:38;;;;;;;13.88;9.88;;;17.30;83.00;;;;;;5078236;28;20399;-86
2021/06/22 09:47:00;;;;;;;13.05;8.98;;;17.50;81.90;;;;;;5090885;28;20035;-88
2021/06/22 09:49:29;;;;;;;12.15;9.43;;;17.80;81.60;;;;;;5091934;28;20012;-86
2021/06/22 09:52:50;;;;;;;12.55;9.35;;;17.50;80.90;;;;;;5070322;28;20040;-84
2021/06/22 09:56:10;;;;;;;14.68;9.32;;;17.60;80.00;;;;;;5090321;28;20026;-87
2021/06/22 09:59:08;;;;;;;13.65;8.73;;;17.30;83.30;;;;;;5095574;28;20062;-86
2021/06/22 10:01:37;;;;;;;15.25;8.88;;;17.40;81.80;;;;;;5075569;28;20025;-87
2021/06/22 10:04:16;;;;;;;15.18;9.82;;;17.60;82.30;;;;;;5059464;28;20040;-86
2021/06/22 10:06:43;;;;;;;13.95;9.55;;;17.70;80.90;;;;;;5094375;28;20050;-87
2021/06/22 10:12:30;;;;;;;12.80;8.13;;;17.80;82.60;;;;;;5094358;28;20071;-86
2021/06/22 10:18:22;;;;;;;10.13;7.07;;;18.20;78.40;;;;;;5094201;28;20046;-88
2021/06/22 10:20:59;;;;;;;10.90;7.45;;;18.40;77.90;;;;;;5086397;28;20032;-89
2021/06/22 10:23:25;;;;;;;15.18;7.15;;;18.60;76.70;;;;;;5088991;28;20115;-88
2021/06/22 10:25:52;;;;;;;15.48;7.50;;;18.90;76.60;;;;;;5072277;28;20035;-86
2021/06/22 10:28:17;;;;;;;12.43;6.70;;;19.00;75.30;;;;;;5061258;28;20020;-86
2021/06/22 10:30:43;;;;;;;9.13;5.57;;;19.00;73.90;;;;;;5073824;28;20027;-87
2021/06/22 10:33:09;;;;;;;9.02;6.07;;;18.80;74.50;;;;;;5078454;28;20032;-84
2021/06/22 10:39:05;;;;;;;9.38;6.03;;;18.80;74.20;;;;;;5095506;28;20081;-88
2021/06/22 10:41:44;;;;;;;15.52;6.93;;;19.20;74.20;;;;;;5078407;28;20106;-90
2021/06/22 10:44:27;;;;;;;10.23;5.97;;;19.40;74.20;;;;;;5061387;28;20085;-87
2021/06/22 10:47:25;;;;;;;8.88;6.18;;;19.10;73.40;;;;;;5079866;28;20115;-89
2021/06/22 10:56:44;;;;;;;8.45;5.28;;;18.50;75.20;;;;;;5074946;28;20030;-89
2021/06/22 10:59:14;;;;;;;12.68;6.90;;;18.60;75.60;;;;;;5039900;28;20059;-88
2021/06/22 11:05:14;;;;;;;12.95;7.13;;;18.80;74.90;;;;;;5074196;28;20145;-85
2021/06/22 11:07:40;;;;;;;10.48;6.95;;;18.90;73.90;;;;;;5039636;28;20024;-84
2021/06/22 11:13:42;;;;;;;10.98;7.72;;;18.50;75.40;;;;;;5074154;28;20047;-87
2021/06/22 11:19:29;;;;;;;9.70;6.15;;;18.80;73.50;;;;;;5089291;28;20042;-86
2021/06/22 11:25:17;;;;;;;13.98;6.72;;;19.00;73.00;;;;;;5097966;28;20019;-86
2021/06/22 11:31:04;;;;;;;12.63;6.00;;;18.90;73.90;;;;;;5090980;28;20444;-86
2021/06/22 11:33:34;;;;;;;9.52;5.72;;;18.90;75.00;;;;;;5059002;28;20028;-86
2021/06/22 11:36:15;;;;;;;9.98;6.30;;;18.70;74.40;;;;;;5067634;28;20016;-86
2021/06/22 11:38:42;;;;;;;17.42;6.32;;;18.40;77.80;;;;;;5072391;28;20036;-86
2021/06/22 11:41:12;;;;;;;12.55;7.00;;;18.40;77.20;;;;;;5055173;28;20338;-86
2021/06/22 11:46:59;;;;;;;12.65;5.95;;;18.10;77.20;;;;;;5074706;28;20051;-85
2021/06/22 11:52:51;;;;;;;12.32;5.95;;;18.30;76.90;;;;;;5074191;28;20031;-84
2021/06/22 11:58:39;;;;;;;9.45;5.55;;;18.00;78.60;;;;;;5074543;28;20080;-86
2021/06/22 12:04:27;;;;;;;10.32;5.85;;;18.30;76.10;;;;;;5075652;28;20077;-84
2021/06/22 12:06:52;;;;;;;12.35;5.97;;;17.80;78.80;;;;;;5074603;28;20111;-84
2021/06/22 12:09:43;;;;;;;9.98;5.82;;;17.90;79.10;;;;;;5075719;28;20121;-82
2021/06/22 12:15:33;;;;;;;11.82;6.18;;;17.80;79.60;;;;;;5096783;28;20050;-86
2021/06/22 12:17:59;;;;;;;12.32;7.25;;;17.70;79.50;;;;;;5077739;28;20026;-88
2021/06/22 12:23:47;;;;;;;7.82;5.82;;;18.00;79.60;;;;;;5096163;28;20146;-84
2021/06/22 12:26:13;;;;;;;10.25;5.13;;;18.20;77.60;;;;;;5074912;28;20048;-87
2021/06/22 12:28:38;;;;;;;8.30;4.57;;;18.20;77.10;;;;;;5047698;28;20028;-87
2021/06/22 12:31:05;;;;;;;11.25;5.47;;;18.30;76.60;;;;;;5058077;28;20054;-84
2021/06/22 12:33:36;;;;;;;11.18;5.72;;;18.20;76.40;;;;;;5066142;28;20063;-85
2021/06/22 12:36:04;;;;;;;9.73;5.13;;;18.30;75.50;;;;;;5060188;28;20359;-83
2021/06/22 12:38:30;;;;;;;11.05;5.60;;;18.20;75.80;;;;;;5092500;28;20023;-83
2021/06/22 12:40:57;;;;;;;11.73;5.75;;;18.30;75.40;;;;;;5071867;28;20387;-82
2021/06/22 12:43:48;;;;;;;9.40;6.20;;;18.20;75.70;;;;;;5072856;28;20057;-86
2021/06/22 12:46:21;;;;;;;10.45;5.65;;;18.00;77.10;;;;;;5059035;28;20021;-84
2021/06/22 12:48:49;;;;;;;12.73;6.80;;;17.90;79.30;;;;;;5090835;28;20107;-86
2021/06/22 12:54:38;;;;;;;13.07;8.00;;;17.40;90.20;;;;;;5096445;28;20039;-90
2021/06/22 12:57:19;;;;;;;18.10;8.45;;;17.00;90.10;;;;;;5060688;28;20065;-90
2021/06/22 12:59:47;;;;;;;10.82;8.13;;;17.00;90.20;;;;;;5076723;28;20478;-89
2021/06/22 13:02:50;;;;;;;14.40;9.30;;;16.80;88.20;;;;;;5061237;28;20032;-90
2021/06/22 13:08:37;;;;;;;18.27;11.77;;;16.60;91.80;;;;;;5096115;28;20019;-89
2021/06/22 13:17:54;;;;;;;24.38;13.95;;;16.40;93.60;;;;;;5085921;28;20553;-90
2021/06/22 13:23:41;;;;;;;19.42;11.20;;;16.30;93.00;;;;;;5085538;28;20084;-89
2021/06/22 13:30:04;;;;;;;22.40;12.15;;;16.10;94.20;;;;;;5092539;28;20065;-92
2021/06/22 13:32:39;;;;;;;17.02;10.40;;;16.00;95.60;;;;;;5075351;28;20032;-87
2021/06/22 13:35:15;;;;;;;22.00;12.32;;;15.90;93.40;;;;;;5074728;28;20116;-87
2021/06/22 13:41:03;;;;;;;19.52;11.82;;;15.70;94.60;;;;;;5084713;28;20061;-85
2021/06/22 13:43:38;;;;;;;15.57;10.15;;;15.70;95.60;;;;;;5061427;28;20023;-83
2021/06/22 13:46:04;;;;;;;18.40;11.07;;;15.70;95.40;;;;;;5095798;28;20043;-86
2021/06/22 13:48:32;;;;;;;17.90;12.10;;;15.60;94.90;;;;;;5077973;28;20448;-85
2021/06/22 13:54:19;;;;;;;21.50;14.60;;;15.40;96.80;;;;;;5096176;28;20050;-85
2021/06/22 14:00:07;;;;;;;26.08;17.42;;;15.30;98.70;;;;;;5095974;28;20062;-83
2021/06/22 14:05:55;;;;;;;34.53;21.17;;;15.40;99.40;;;;;;5095855;28;20057;-83
2021/06/22 14:08:21;;;;;;;22.38;18.13;;;15.50;99.90;;;;;;5077519;28;20083;-82
2021/06/22 14:10:52;;;;;;;25.40;17.92;;;15.50;98.90;;;;;;5094343;28;20020;-82
2021/06/22 14:13:23;;;;;;;35.40;22.35;;;15.50;99.10;;;;;;5062496;28;20028;-82
2021/06/22 14:15:50;;;;;;;25.90;17.00;;;15.60;99.90;;;;;;5078992;28;20107;-82
2021/06/22 14:18:16;;;;;;;27.00;16.55;;;15.60;99.40;;;;;;5077610;28;20046;-81
2021/06/22 14:20:42;;;;;;;25.85;16.23;;;15.50;98.40;;;;;;5076985;28;20024;-82
2021/06/22 14:23:08;;;;;;;31.35;21.73;;;15.50;98.60;;;;;;5077214;28;20024;-81
2021/06/22 14:25:36;;;;;;;22.05;14.93;;;15.60;99.90;;;;;;5076923;28;20042;-81
2021/06/22 14:28:03;;;;;;;29.13;18.20;;;15.60;98.60;;;;;;5077298;28;20020;-81
2021/06/22 14:30:29;;;;;;;25.30;15.65;;;15.70;99.90;;;;;;5077630;28;20398;-81
2021/06/22 14:32:54;;;;;;;35.97;22.02;;;15.60;98.50;;;;;;5093659;28;20032;-81
2021/06/22 14:38:42;;;;;;;33.53;20.80;;;15.70;99.30;;;;;;5095144;28;20475;-80
2021/06/22 14:44:30;;;;;;;20.92;15.90;;;16.00;99.60;;;;;;5074653;28;20086;-81
2021/06/22 14:46:56;;;;;;;26.55;17.60;;;16.00;98.60;;;;;;5073231;28;20029;-81
2021/06/22 14:49:21;;;;;;;27.08;15.93;;;16.00;98.90;;;;;;5056694;28;20028;-80
2021/06/22 14:57:57;;;;;;;20.33;15.90;;;15.90;99.90;;;;;;5073698;28;20118;-80
2021/06/22 15:00:23;;;;;;;27.92;19.25;;;15.80;98.60;;;;;;5090205;28;20024;-80
2021/06/22 15:02:49;;;;;;;19.55;14.18;;;15.70;99.40;;;;;;5077412;28;20039;-82
2021/06/22 15:05:17;;;;;;;20.67;16.35;;;15.60;97.40;;;;;;5076444;28;20107;-81
2021/06/22 15:07:43;;;;;;;27.05;17.30;;;15.50;98.30;;;;;;5060306;28;20334;-80
2021/06/22 15:16:53;;;;;;;28.33;18.13;;;15.30;98.00;;;;;;5074856;28;20423;-78
2021/06/22 15:22:41;;;;;;;27.63;18.42;;;15.10;99.20;;;;;;5089240;28;20039;-77
2021/06/22 15:25:08;;;;;;;28.73;19.75;;;15.00;99.50;;;;;;5069872;28;20465;-79
2021/06/22 15:27:34;;;;;;;38.35;23.17;;;14.90;99.70;;;;;;5058900;28;20218;-80
2021/06/22 15:30:06;;;;;;;36.75;22.95;;;14.90;99.90;;;;;;5051690;28;20024;-79
2021/06/22 15:32:40;;;;;;;39.22;26.23;;;15.00;99.90;;;;;;5071357;28;20032;-79
2021/06/22 15:35:20;;;;;;;34.75;24.77;;;15.00;99.90;;;;;;5087503;28;20020;-79
2021/06/22 15:37:46;;;;;;;31.15;18.98;;;15.10;99.90;;;;;;5088460;28;20032;-79
2021/06/22 15:40:13;;;;;;;31.17;18.70;;;15.10;99.90;;;;;;5076058;28;20027;-79
2021/06/22 15:46:01;;;;;;;31.38;22.58;;;15.10;99.90;;;;;;5093773;28;20081;-79
2021/06/22 15:48:27;;;;;;;34.03;22.08;;;15.10;99.90;;;;;;5071563;28;20471;-80
2021/06/22 15:50:52;;;;;;;39.85;23.92;;;15.00;99.90;;;;;;5055973;28;20054;-79
2021/06/22 15:56:40;;;;;;;41.05;25.85;;;15.10;99.90;;;;;;5093508;28;20482;-80
2021/06/22 16:02:27;;;;;;;33.35;22.20;;;15.10;99.90;;;;;;5091624;28;20085;-80
2021/06/22 16:04:53;;;;;;;41.50;25.02;;;15.10;99.90;;;;;;5074927;28;20063;-79
2021/06/22 16:10:41;;;;;;;31.75;22.48;;;15.00;99.90;;;;;;5093565;28;20031;-77
2021/06/22 16:16:30;;;;;;;36.03;24.42;;;15.10;99.90;;;;;;5093772;28;20118;-78
2021/06/22 16:22:17;;;;;;;38.13;24.95;;;15.10;99.90;;;;;;5093670;28;20118;-77
2021/06/22 16:24:43;;;;;;;41.30;25.42;;;15.20;99.90;;;;;;5092282;28;20138;-77
2021/06/22 16:30:31;;;;;;;38.50;23.88;;;15.30;99.90;;;;;;5093192;28;20085;-76
2021/06/22 16:36:18;;;;;;;32.45;22.42;;;15.30;99.90;;;;;;5093313;28;20069;-76
2021/06/22 16:42:06;;;;;;;39.03;23.83;;;15.40;99.90;;;;;;5093320;28;20024;-75
2021/06/22 16:47:54;;;;;;;27.02;17.40;;;15.40;99.90;;;;;;5093192;28;20127;-75
2021/06/22 16:53:45;;;;;;;30.05;18.73;;;15.30;99.90;;;;;;5093276;28;20115;-75
2021/06/22 16:59:33;;;;;;;31.95;20.13;;;15.30;99.80;;;;;;5093313;28;20038;-75
2021/06/22 17:05:20;;;;;;;20.52;15.30;;;15.20;99.90;;;;;;5093152;28;20542;-76
2021/06/22 17:07:46;;;;;;;27.95;18.45;;;15.20;99.40;;;;;;5077595;28;20028;-75
2021/06/22 17:13:35;;;;;;;32.97;20.63;;;15.20;99.90;;;;;;5096864;28;20047;-75
2021/06/22 17:16:01;;;;;;;30.27;21.30;;;15.20;99.90;;;;;;5095401;28;20016;-76
2021/06/22 17:18:27;;;;;;;26.38;18.30;;;15.20;99.90;;;;;;5095201;28;20465;-76
2021/06/22 17:24:14;;;;;;;31.80;20.70;;;15.20;99.90;;;;;;5096515;28;20417;-77
2021/06/22 17:30:03;;;;;;;34.65;22.90;;;15.10;99.90;;;;;;5090340;28;20447;-77
2021/06/22 17:32:29;;;;;;;31.35;22.63;;;15.10;99.90;;;;;;5061504;28;20119;-76
2021/06/22 17:34:55;;;;;;;38.78;24.85;;;15.00;99.90;;;;;;5065526;28;20155;-77
2021/06/22 17:37:21;;;;;;;35.95;22.95;;;15.00;99.90;;;;;;5076504;28;20143;-77
2021/06/22 17:39:46;;;;;;;32.92;21.50;;;15.00;99.90;;;;;;5051168;28;20507;-77
2021/06/22 17:42:12;;;;;;;31.20;21.88;;;15.00;99.90;;;;;;5047886;28;20042;-78
2021/06/22 17:44:38;;;;;;;39.33;25.67;;;14.90;99.90;;;;;;5082350;28;20024;-77
2021/06/22 17:47:04;;;;;;;29.80;21.95;;;15.00;99.90;;;;;;5063954;28;20012;-77
2021/06/22 17:49:29;;;;;;;34.83;22.27;;;15.00;99.90;;;;;;5044899;28;20135;-78
2021/06/22 17:51:55;;;;;;;34.85;22.33;;;15.00;99.90;;;;;;5066669;28;20048;-77
2021/06/22 17:54:21;;;;;;;35.50;24.77;;;15.00;99.90;;;;;;5065417;28;20028;-77
2021/06/22 17:56:52;;;;;;;35.35;23.08;;;14.90;99.90;;;;;;5049385;28;20032;-77
2021/06/22 17:59:17;;;;;;;37.50;24.38;;;14.90;99.90;;;;;;5081614;28;20042;-77
2021/06/22 18:01:43;;;;;;;41.65;26.42;;;14.90;99.90;;;;;;5083792;28;20016;-77
2021/06/22 18:04:08;;;;;;;40.92;26.92;;;14.80;99.90;;;;;;5085214;28;20032;-77
2021/06/22 18:06:34;;;;;;;45.65;27.90;;;14.80;99.90;;;;;;5062913;28;20032;-77
2021/06/22 18:09:00;;;;;;;36.30;24.58;;;14.70;99.90;;;;;;5080564;28;20024;-77
2021/06/22 18:11:26;;;;;;;42.88;26.17;;;14.70;99.90;;;;;;5079472;28;20046;-77
2021/06/22 18:13:51;;;;;;;40.70;27.20;;;14.70;99.90;;;;;;5080566;28;20016;-77
2021/06/22 18:16:17;;;;;;;46.03;30.35;;;14.80;99.90;;;;;;5083789;28;20066;-77
2021/06/22 18:18:43;;;;;;;36.35;26.33;;;14.80;99.90;;;;;;5081077;28;20039;-77
2021/06/22 18:21:08;;;;;;;37.17;25.17;;;14.70;99.90;;;;;;5083569;28;20027;-77